createdAt,value
2022-12-23T00:02:09.889Z,15.3
2022-12-23T00:04:24.893Z,15.2
2022-12-23T00:06:25.152Z,15.1
2022-12-23T00:06:40.210Z,15.3
2022-12-23T00:08:40.274Z,15.1
2022-12-23T00:08:55.183Z,15.1
2022-12-23T00:10:55.468Z,15
2022-12-23T00:11:10.511Z,15.1
2022-12-23T00:13:25.969Z,15.1
2022-12-23T00:15:41.494Z,14.7
2022-12-23T00:17:56.816Z,15.1
2022-12-23T00:20:11.834Z,15.1
2022-12-23T00:22:27.051Z,15.1
2022-12-23T00:24:42.124Z,15.2
2022-12-23T00:26:58.091Z,15
2022-12-23T00:29:12.512Z,15.3
2022-12-23T00:31:27.804Z,15.1
2022-12-23T00:33:43.277Z,15.3
2022-12-23T00:35:59.503Z,14.8
2022-12-23T00:37:59.828Z,14.7
2022-12-23T00:38:14.890Z,15
2022-12-23T00:40:29.901Z,15
2022-12-23T00:42:45.176Z,15
2022-12-23T00:45:00.753Z,15
2022-12-23T00:47:16.417Z,14.6
2022-12-23T00:49:31.552Z,15.2
2022-12-23T00:51:46.772Z,15.2
2022-12-23T00:54:02.357Z,15.1
2022-12-23T00:56:17.915Z,14.6
2022-12-23T00:58:33.027Z,14.9
2022-12-23T01:00:33.085Z,15.1
2022-12-23T01:00:48.037Z,15.1
2022-12-23T01:02:48.432Z,15
2022-12-23T01:03:03.541Z,15.2
2022-12-23T01:05:03.439Z,14.9
2022-12-23T01:05:18.409Z,15.1
2022-12-23T01:07:34.090Z,14.9
2022-12-23T01:09:49.670Z,14.7
2022-12-23T01:12:05.551Z,15.1
2022-12-23T01:14:21.068Z,14.6
2022-12-23T01:16:36.132Z,15.1
2022-12-23T01:18:51.263Z,14.9
2022-12-23T01:21:06.481Z,15.2
2022-12-23T01:23:21.558Z,15.1
2022-12-23T01:25:36.607Z,15
2022-12-23T01:27:51.864Z,15.1
2022-12-23T01:30:06.887Z,15.1
2022-12-23T01:32:07.683Z,15.1
2022-12-23T01:32:22.152Z,15.1
2022-12-23T01:34:37.789Z,15
2022-12-23T01:36:52.699Z,15.1
2022-12-23T01:39:07.571Z,15.1
2022-12-23T01:41:22.875Z,15
2022-12-23T01:43:37.949Z,14.9
2022-12-23T01:45:53.292Z,15
2022-12-23T01:48:08.319Z,15.1
2022-12-23T01:50:23.465Z,14.9
2022-12-23T01:52:39.404Z,15
2022-12-23T01:54:53.819Z,15.3
2022-12-23T01:56:54.159Z,15.1
2022-12-23T01:57:09.355Z,14.8
2022-12-23T01:59:09.808Z,15.1
2022-12-23T01:59:24.248Z,15.1
2022-12-23T02:01:24.727Z,15.1
2022-12-23T02:01:39.688Z,14.9
2022-12-23T02:03:39.690Z,15.2
2022-12-23T02:03:54.652Z,15
2022-12-23T02:06:09.930Z,14.9
2022-12-23T02:08:24.964Z,15
2022-12-23T02:10:39.990Z,15
2022-12-23T02:12:40.222Z,14.9
2022-12-23T02:12:55.252Z,14.9
2022-12-23T02:15:10.410Z,15.2
2022-12-23T02:17:25.605Z,15.1
2022-12-23T02:19:40.720Z,15
2022-12-23T02:21:56.022Z,15
2022-12-23T02:24:11.090Z,14.9
2022-12-23T02:26:26.383Z,15
2022-12-23T02:28:41.455Z,15.1
2022-12-23T02:30:41.881Z,15.1
2022-12-23T02:30:57.066Z,14.9
2022-12-23T02:33:13.329Z,14.8
2022-12-23T02:35:27.739Z,15.1
2022-12-23T02:37:43.465Z,15
2022-12-23T02:39:58.953Z,14.9
2022-12-23T02:42:14.806Z,14.9
2022-12-23T02:44:30.026Z,14.6
2022-12-23T02:46:29.666Z,15
2022-12-23T02:46:45.269Z,14.9
2022-12-23T02:49:00.180Z,15.1
2022-12-23T02:51:15.717Z,15.1
2022-12-23T02:53:15.602Z,15.1
2022-12-23T02:53:30.633Z,14.9
2022-12-23T02:55:45.615Z,15
2022-12-23T02:58:00.914Z,15.2
2022-12-23T03:01:23.073Z,15.1
2022-12-23T03:03:38.137Z,15.1
2022-12-23T03:05:53.023Z,15.1
2022-12-23T03:08:08.001Z,15.3
2022-12-23T03:10:22.981Z,15.1
2022-12-23T03:12:23.101Z,15.2
2022-12-23T03:12:38.140Z,15.1
2022-12-23T03:14:52.924Z,15.1
2022-12-23T03:17:08.001Z,15.3
2022-12-23T03:19:22.931Z,15.3
2022-12-23T03:21:37.898Z,15.2
2022-12-23T03:23:55.638Z,15.1
2022-12-23T03:26:07.843Z,15.3
2022-12-23T03:28:22.938Z,15.1
2022-12-23T03:30:37.941Z,15.3
2022-12-23T03:32:37.814Z,15.2
2022-12-23T03:32:53.058Z,15.2
2022-12-23T03:35:07.811Z,15.1
2022-12-23T03:37:07.800Z,14.9
2022-12-23T03:37:22.901Z,15.1
2022-12-23T03:39:37.748Z,15.1
2022-12-23T03:41:52.834Z,15.2
2022-12-23T03:43:52.815Z,15.1
2022-12-23T03:44:07.909Z,14.9
2022-12-23T03:46:39.568Z,15.2
2022-12-23T03:46:53.962Z,15.1
2022-12-23T03:49:09.520Z,15.1
2022-12-23T03:51:24.678Z,15.2
2022-12-23T03:53:39.612Z,15
2022-12-23T03:55:54.870Z,15.1
2022-12-23T03:57:54.775Z,15.3
2022-12-23T03:58:09.824Z,15
2022-12-23T04:00:24.785Z,15.3
2022-12-23T04:02:25.559Z,15.1
2022-12-23T04:02:40.728Z,14.8
2022-12-23T04:04:55.881Z,14.4
2022-12-23T04:07:11.162Z,15.1
2022-12-23T04:09:12.685Z,15.3
2022-12-23T04:09:26.196Z,15.1
2022-12-23T04:11:41.964Z,15.1
2022-12-23T04:13:42.320Z,14.7
2022-12-23T04:13:57.622Z,15
2022-12-23T04:16:12.657Z,15.1
2022-12-23T04:18:27.799Z,15.2
2022-12-23T04:20:42.927Z,15.1
2022-12-23T04:22:43.160Z,15.1
2022-12-23T04:22:58.357Z,14.6
2022-12-23T04:24:59.057Z,14.6
2022-12-23T04:25:14.085Z,14.6
2022-12-23T04:27:29.720Z,14.7
2022-12-23T04:29:44.637Z,15
2022-12-23T04:31:59.945Z,15.2
2022-12-23T04:33:59.847Z,15.3
2022-12-23T04:34:14.800Z,15.2
2022-12-23T04:36:15.034Z,15.3
2022-12-23T04:36:30.049Z,15.1
2022-12-23T04:38:30.262Z,15.2
2022-12-23T04:38:45.054Z,15.1
2022-12-23T04:41:00.807Z,15
2022-12-23T04:43:16.777Z,14.6
2022-12-23T04:45:31.902Z,14.7
2022-12-23T04:47:47.187Z,15.1
2022-12-23T04:50:02.228Z,15.1
2022-12-23T04:52:17.515Z,15.3
2022-12-23T04:54:32.451Z,15.3
2022-12-23T04:56:32.622Z,15.2
2022-12-23T04:56:47.658Z,14.9
2022-12-23T04:58:47.727Z,15.2
2022-12-23T04:59:02.682Z,15
2022-12-23T05:01:17.937Z,15.1
2022-12-23T05:03:32.968Z,15.1
2022-12-23T05:05:48.084Z,15.1
2022-12-23T05:07:47.981Z,15.1
2022-12-23T05:08:02.968Z,15
2022-12-23T05:10:18.033Z,15.1
2022-12-23T05:12:33.486Z,15.1
2022-12-23T05:14:48.303Z,15.1
2022-12-23T05:17:07.316Z,14.9
2022-12-23T05:19:18.472Z,15.1
2022-12-23T05:21:18.698Z,15.1
2022-12-23T05:21:34.142Z,15.1
2022-12-23T05:23:48.548Z,15.1
2022-12-23T05:25:48.852Z,15.2
2022-12-23T05:26:03.876Z,15
2022-12-23T05:28:19.063Z,15.2
2022-12-23T05:30:33.832Z,15.2
2022-12-23T05:32:49.051Z,15.1
2022-12-23T05:34:49.874Z,15.2
2022-12-23T05:35:04.630Z,14.4
2022-12-23T05:37:20.272Z,14.7
2022-12-23T05:39:35.216Z,15.2
2022-12-23T05:41:50.901Z,15.1
2022-12-23T05:44:06.306Z,14.5
2022-12-23T05:46:26.357Z,15
2022-12-23T05:48:21.895Z,15.2
2022-12-23T05:48:36.481Z,15.1
2022-12-23T05:50:36.921Z,15.1
2022-12-23T05:50:52.414Z,14.6
2022-12-23T05:53:07.771Z,14.6
2022-12-23T05:55:22.710Z,15.1
2022-12-23T05:57:22.848Z,15.1
2022-12-23T05:57:37.970Z,15
2022-12-23T05:59:54.086Z,15.1
2022-12-23T06:02:09.250Z,14.7
2022-12-23T06:04:24.624Z,14.8
2022-12-23T06:06:40.111Z,14.8
2022-12-23T06:08:59.504Z,15.1
2022-12-23T06:11:10.479Z,14.9
2022-12-23T06:13:25.388Z,15
2022-12-23T06:15:25.401Z,15.2
2022-12-23T06:15:40.535Z,15.1
2022-12-23T06:17:55.602Z,15.1
2022-12-23T06:20:16.262Z,15.1
2022-12-23T06:22:25.815Z,15.1
2022-12-23T06:24:40.790Z,15.1
2022-12-23T06:26:57.384Z,15.1
2022-12-23T06:29:11.016Z,15.1
2022-12-23T06:31:26.227Z,15.1
2022-12-23T06:33:26.594Z,15.2
2022-12-23T06:33:41.843Z,14.6
2022-12-23T06:35:57.402Z,14.4
2022-12-23T06:38:12.552Z,15
2022-12-23T06:40:12.450Z,15.1
2022-12-23T06:40:27.346Z,14.9
2022-12-23T06:42:28.088Z,15.1
2022-12-23T06:42:43.366Z,14.8
2022-12-23T06:44:43.589Z,14.6
2022-12-23T06:44:58.838Z,15
2022-12-23T06:47:13.733Z,15
2022-12-23T06:49:28.771Z,15
2022-12-23T06:51:43.992Z,14.9
2022-12-23T06:53:59.012Z,15
2022-12-23T06:56:14.609Z,15.1
2022-12-23T06:58:30.089Z,14.4
2022-12-23T07:00:45.012Z,14.9
2022-12-23T07:03:00.456Z,14.9
2022-12-23T07:05:15.222Z,14.9
2022-12-23T07:07:30.682Z,15.1
2022-12-23T07:09:45.443Z,15
2022-12-23T07:12:00.763Z,15.1
2022-12-23T07:14:15.542Z,15.1
2022-12-23T07:16:15.979Z,15.1
2022-12-23T07:16:30.942Z,15
2022-12-23T07:18:45.804Z,15.1
2022-12-23T07:21:01.065Z,14.9
2022-12-23T07:23:16.032Z,15
2022-12-23T07:25:16.897Z,15.1
2022-12-23T07:25:31.103Z,15
2022-12-23T07:27:46.334Z,15
2022-12-23T07:30:01.576Z,14.9
2022-12-23T07:32:02.651Z,14.9
2022-12-23T07:32:17.778Z,14.4
2022-12-23T07:34:35.265Z,14.6
2022-12-23T07:36:52.781Z,13.8
2022-12-23T07:38:55.398Z,13.9
2022-12-23T07:39:10.738Z,13.7
2022-12-23T07:41:28.670Z,13.9
2022-12-23T07:44:10.601Z,14
2022-12-23T07:46:29.480Z,13.4
